createdAt,value
2022-09-02T00:02:09.572Z,36.64
2022-09-02T00:07:02.091Z,36.83
2022-09-02T00:11:54.704Z,36.86
2022-09-02T00:16:47.476Z,36.8
2022-09-02T00:21:40.089Z,36.85
2022-09-02T00:26:32.663Z,36.85
2022-09-02T00:31:25.283Z,36.96
2022-09-02T00:41:10.625Z,36.95
2022-09-02T00:50:55.983Z,36.89
2022-09-02T01:00:41.339Z,36.92
2022-09-02T01:05:33.862Z,36.95
2022-09-02T01:10:26.374Z,36.87
2022-09-02T01:15:19.195Z,36.97
2022-09-02T01:20:11.893Z,36.94
2022-09-02T01:25:04.530Z,37
2022-09-02T01:29:57.121Z,36.75
2022-09-02T01:34:49.798Z,36.97
2022-09-02T01:39:42.221Z,37.04
2022-09-02T01:44:35.228Z,37.09
2022-09-02T01:49:27.745Z,37.03
2022-09-02T01:54:20.588Z,37.04
2022-09-02T01:59:12.895Z,36.9
2022-09-02T02:04:06.840Z,37.09
2022-09-02T02:08:58.198Z,37.13
2022-09-02T02:13:50.840Z,37.17
2022-09-02T02:18:43.667Z,37.07
2022-09-02T02:23:36.409Z,37.13
2022-09-02T02:28:28.960Z,37.05
2022-09-02T02:33:21.858Z,37.12
2022-09-02T02:38:15.554Z,37.12
2022-09-02T02:43:07.048Z,36.98
2022-09-02T02:47:59.547Z,36.88
2022-09-02T02:52:52.067Z,37.08
2022-09-02T02:57:44.707Z,37.08
2022-09-02T03:02:37.476Z,37
2022-09-02T03:07:30.058Z,37.01
2022-09-02T03:12:22.746Z,37.18
2022-09-02T03:17:15.498Z,36.97
2022-09-02T03:22:08.132Z,36.93
2022-09-02T03:27:00.803Z,37.06
2022-09-02T03:31:53.430Z,37.08
2022-09-02T03:36:46.105Z,37.06
2022-09-02T03:41:38.570Z,37.06
2022-09-02T03:46:31.561Z,37.12
2022-09-02T03:51:24.089Z,36.98
2022-09-02T03:56:16.391Z,37.09
2022-09-02T04:01:09.026Z,37.01
2022-09-02T04:06:01.642Z,37
2022-09-02T04:10:54.547Z,37.08
2022-09-02T04:15:47.242Z,37.08
2022-09-02T04:20:39.951Z,37.03
2022-09-02T04:25:32.755Z,37.09
2022-09-02T04:30:25.402Z,37.08
2022-09-02T04:35:18.150Z,37.2
2022-09-02T04:40:10.972Z,37.08
2022-09-02T04:45:03.527Z,36.79
2022-09-02T04:49:55.605Z,36.52
2022-09-02T04:54:47.974Z,36.4
2022-09-02T04:59:40.412Z,36.46
2022-09-02T05:04:32.849Z,36.93
2022-09-02T05:09:25.340Z,36.31
2022-09-02T05:14:17.723Z,37.31
2022-09-02T05:19:10.468Z,38.35
2022-09-02T05:24:02.877Z,38.18
2022-09-02T05:28:55.374Z,37.67
2022-09-02T05:33:48.101Z,38.97
2022-09-02T05:38:39.849Z,38.76
2022-09-02T05:43:32.779Z,38.5
2022-09-02T05:48:25.568Z,41.44
2022-09-02T05:53:17.820Z,39.45
2022-09-02T05:58:09.939Z,41.8
2022-09-02T06:03:02.958Z,39.64
2022-09-02T06:07:55.416Z,41.16
2022-09-02T06:12:47.895Z,39.93
2022-09-02T06:17:40.241Z,40.69
2022-09-02T06:27:26.259Z,40.1
2022-09-02T06:32:18.826Z,40.41
2022-09-02T06:37:11.115Z,42.2
2022-09-02T06:46:56.920Z,39.89
2022-09-02T06:51:49.513Z,43.31
2022-09-02T06:56:43.877Z,45.88
2022-09-02T07:01:34.607Z,45.87
2022-09-02T07:06:28.181Z,42.65
2022-09-02T07:11:20.190Z,44.34
2022-09-02T07:16:18.317Z,44.43
2022-09-02T07:21:05.370Z,46.34
2022-09-02T07:25:58.834Z,45.55
2022-09-02T07:30:53.644Z,43.12
2022-09-02T07:35:44.388Z,43.99
2022-09-02T07:40:36.456Z,44.66
2022-09-02T07:45:29.046Z,44.76
2022-09-02T07:50:22.324Z,45.19
2022-09-02T07:55:15.159Z,43.16
2022-09-02T08:00:07.041Z,44.62
2022-09-02T08:05:00.170Z,43.08
2022-09-02T08:09:51.774Z,43.51
2022-09-02T08:14:44.584Z,42.39
2022-09-02T08:19:37.350Z,42.17
2022-09-02T08:24:29.766Z,42.42
2022-09-02T08:29:22.620Z,42.18
2022-09-02T08:34:16.022Z,41.07
2022-09-02T08:39:08.455Z,40.98
2022-09-02T08:44:01.012Z,41.81
2022-09-02T08:48:53.816Z,41.31
2022-09-02T08:53:46.774Z,40.95
2022-09-02T08:58:39.756Z,40.93
2022-09-02T09:03:32.317Z,40.56
2022-09-02T09:08:25.329Z,40.63
2022-09-02T09:13:17.747Z,40.62
2022-09-02T09:18:10.712Z,40.31
2022-09-02T09:23:02.960Z,40.16
2022-09-02T09:27:55.592Z,39.96
2022-09-02T09:32:48.277Z,39.43
2022-09-02T09:37:40.647Z,38.26
2022-09-02T09:42:33.059Z,38.13
2022-09-02T09:47:25.336Z,38.02
2022-09-02T09:52:13.264Z,37.28
2022-09-02T09:57:05.878Z,37.43
2022-09-02T10:01:59.724Z,36.88
2022-09-02T10:06:52.273Z,36.33
2022-09-02T10:11:44.743Z,36.06
2022-09-02T10:16:37.533Z,35.23
2022-09-02T10:21:25.425Z,34.85
2022-09-02T10:26:17.828Z,34.29
2022-09-02T10:31:11.722Z,34.8
2022-09-02T10:36:04.683Z,35.04
2022-09-02T10:40:57.780Z,35.59
2022-09-02T10:45:50.454Z,35.87
2022-09-02T10:50:44.603Z,35.64
2022-09-02T10:55:35.786Z,35.57
2022-09-02T11:00:28.362Z,35.73
2022-09-02T11:05:20.626Z,36.06
2022-09-02T11:10:13.428Z,35.96
2022-09-02T11:15:05.838Z,35.88
2022-09-02T11:19:58.454Z,36.08
2022-09-02T11:24:51.262Z,35.83
2022-09-02T11:29:43.930Z,35.78
2022-09-02T11:34:36.738Z,35.74
2022-09-02T11:39:36.402Z,35.62
2022-09-02T11:44:22.229Z,35.6
2022-09-02T11:49:15.061Z,35.66
2022-09-02T11:54:07.717Z,35.47
2022-09-02T11:59:00.371Z,35.47
2022-09-02T12:04:27.426Z,35.33
2022-09-02T12:08:46.114Z,35.35
2022-09-02T12:13:38.898Z,35.5
2022-09-02T12:18:31.553Z,35.15
2022-09-02T12:23:24.427Z,35
2022-09-02T12:28:19.034Z,35.32
2022-09-02T12:33:09.992Z,35.15
2022-09-02T12:38:02.599Z,34.95
2022-09-02T12:42:55.347Z,35
2022-09-02T12:47:47.856Z,35.07
2022-09-02T12:52:40.484Z,35.03
2022-09-02T12:57:33.091Z,34.85
2022-09-02T13:02:26.826Z,34.68
2022-09-02T13:07:18.249Z,34.63
2022-09-02T13:12:10.833Z,34.47
2022-09-02T13:17:13.815Z,34.55
2022-09-02T13:21:56.226Z,34.52
2022-09-02T13:31:41.035Z,34.43
2022-09-02T13:41:26.512Z,34.51
2022-09-02T13:51:12.149Z,34.16
2022-09-02T14:10:42.633Z,33.86
2022-09-02T14:15:35.688Z,33.9
2022-09-02T14:20:28.226Z,33.7
2022-09-02T14:25:24.221Z,33.45
2022-09-02T14:30:13.682Z,33.36
2022-09-02T14:35:05.936Z,33.5
2022-09-02T14:39:58.874Z,33.67
2022-09-02T14:44:51.423Z,33.39
2022-09-02T14:49:44.121Z,32.84
2022-09-02T14:54:36.403Z,33.26
2022-09-02T14:59:29.029Z,33.07
2022-09-02T15:04:21.820Z,33.18
2022-09-02T15:09:16.440Z,33.09
2022-09-02T15:14:07.159Z,33.22
2022-09-02T15:18:59.822Z,33.27
2022-09-02T15:23:52.539Z,32.68
2022-09-02T15:28:45.242Z,32.57
2022-09-02T15:33:37.939Z,32.91
2022-09-02T15:38:30.637Z,33.16
2022-09-02T15:43:23.479Z,32.86
2022-09-02T15:48:15.901Z,33.14
2022-09-02T15:53:08.397Z,32.89
2022-09-02T15:58:00.930Z,33.08
2022-09-02T16:02:53.551Z,33.18
2022-09-02T16:07:46.417Z,33.17
2022-09-02T16:12:39.169Z,33.03
2022-09-02T16:17:32.019Z,32.58
2022-09-02T16:22:24.706Z,32.56
2022-09-02T16:27:17.337Z,32.68
2022-09-02T16:32:26.849Z,33.16
2022-09-02T16:37:02.867Z,33.27
2022-09-02T16:41:55.408Z,33.01
2022-09-02T16:46:48.055Z,32.8
2022-09-02T16:51:40.566Z,32.83
2022-09-02T16:56:33.288Z,32.98
2022-09-02T17:01:32.024Z,33.12
2022-09-02T17:06:18.890Z,33.1
2022-09-02T17:11:11.469Z,33.06
2022-09-02T17:16:03.825Z,33.21
2022-09-02T17:20:56.409Z,33.31
2022-09-02T17:25:49.140Z,32.84
2022-09-02T17:30:41.961Z,32.89
2022-09-02T17:35:34.390Z,33
2022-09-02T17:40:27.082Z,32.96
2022-09-02T17:45:19.885Z,33.14
2022-09-02T17:50:15.980Z,33.12
2022-09-02T17:55:05.007Z,33
2022-09-02T17:59:57.549Z,33.16
2022-09-02T18:04:50.391Z,33.05
2022-09-02T18:09:42.488Z,33.04
2022-09-02T18:14:34.981Z,33.2
2022-09-02T18:19:27.544Z,33.21
2022-09-02T18:24:20.277Z,33.08
2022-09-02T18:29:12.588Z,33.18
2022-09-02T18:34:05.229Z,33.23
2022-09-02T18:38:57.883Z,33.16
2022-09-02T18:43:50.709Z,33.25
2022-09-02T18:48:43.386Z,33.14
2022-09-02T18:53:38.059Z,33.12
2022-09-02T18:58:30.232Z,33.28
2022-09-02T19:03:22.824Z,33.32
2022-09-02T19:08:15.559Z,33.31
2022-09-02T19:13:08.166Z,33.22
2022-09-02T19:18:00.838Z,33.16
2022-09-02T19:27:46.016Z,33.29
2022-09-02T19:32:38.576Z,33.31
2022-09-02T19:37:31.112Z,33.36
2022-09-02T19:52:09.373Z,33.27
2022-09-02T19:57:02.673Z,33.29
2022-09-02T20:01:54.931Z,33.32
2022-09-02T20:06:47.719Z,33.29
2022-09-02T20:11:41.121Z,33.32
2022-09-02T20:16:33.300Z,33.44
2022-09-02T20:21:25.933Z,33.45
2022-09-02T20:26:18.412Z,33.58
2022-09-02T20:31:11.195Z,33.52
2022-09-02T20:36:03.916Z,33.46
2022-09-02T20:40:56.540Z,33.54
2022-09-02T20:45:49.106Z,33.74
2022-09-02T20:50:41.926Z,33.64
2022-09-02T20:55:34.749Z,33.67
2022-09-02T21:00:27.575Z,34.02
2022-09-02T21:05:22.755Z,34.06
2022-09-02T21:10:12.811Z,34.24
2022-09-02T21:15:05.683Z,34.21
2022-09-02T21:19:58.162Z,34.32
2022-09-02T21:24:50.999Z,34.4
2022-09-02T21:29:43.711Z,34.3
2022-09-02T21:34:36.277Z,34.49
2022-09-02T21:39:28.907Z,34.67
2022-09-02T21:44:21.552Z,34.74
2022-09-02T21:49:14.061Z,34.89
2022-09-02T21:54:06.868Z,34.86
2022-09-02T21:58:59.564Z,34.86
2022-09-02T22:03:52.136Z,34.83
2022-09-02T22:08:44.746Z,34.95
2022-09-02T22:13:37.407Z,34.92
2022-09-02T22:18:30.096Z,35
2022-09-02T22:23:22.859Z,35.08
2022-09-02T22:28:15.616Z,35.08
2022-09-02T22:33:08.128Z,35.26
2022-09-02T22:38:00.829Z,35.22
2022-09-02T22:42:53.336Z,35.49
2022-09-02T22:47:46.398Z,35.53
2022-09-02T22:52:38.972Z,35.54
2022-09-02T22:57:31.746Z,35.35
2022-09-02T23:02:24.693Z,35.55
2022-09-02T23:07:17.147Z,35.63
2022-09-02T23:12:09.735Z,35.72
2022-09-02T23:17:02.365Z,35.48
2022-09-02T23:21:54.871Z,35.67
2022-09-02T23:26:47.547Z,35.75
2022-09-02T23:31:40.193Z,35.85
2022-09-02T23:36:32.761Z,35.67
2022-09-02T23:41:25.359Z,35.84
2022-09-02T23:46:18.196Z,35.78
2022-09-02T23:51:10.763Z,35.55
2022-09-02T23:56:03.534Z,35.6
